Time;durP1;ratioP1;P1;durP2;ratioP2;P2;SDS_P1;SDS_P2;PMS_P1;PMS_P2;Temp;Humidity;BMP_temperature;BMP_pressure;BME280_temperature;BME280_humidity;BME280_pressure;Samples;Min_cycle;Max_cycle;Signal;HPM_P1;HPM_P2
2023/06/29 00:01:55;;;;;;;6.77;3.57;;;15.70;9.20;;;;;;4994625;28;20431;-70
2023/06/29 00:04:25;;;;;;;5.70;3.37;;;15.70;9.20;;;;;;4996134;28;20418;-69
2023/06/29 00:06:52;;;;;;;4.00;3.27;;;15.60;9.60;;;;;;4995997;28;20430;-71
2023/06/29 00:09:19;;;;;;;4.03;2.57;;;15.60;9.80;;;;;;4995941;28;20869;-70
2023/06/29 00:11:44;;;;;;;9.00;3.53;;;15.60;9.60;;;;;;4994738;28;20438;-70
2023/06/29 00:14:10;;;;;;;3.80;3.27;;;15.60;9.60;;;;;;4996056;28;20873;-70
2023/06/29 00:16:36;;;;;;;3.50;3.00;;;15.50;10.10;;;;;;4994243;28;20201;-69
2023/06/29 00:19:01;;;;;;;3.70;3.00;;;15.50;10.20;;;;;;4995577;28;20207;-70
2023/06/29 00:21:28;;;;;;;3.60;3.20;;;15.50;10.40;;;;;;4995414;28;20187;-69
2023/06/29 00:23:55;;;;;;;3.97;3.40;;;15.40;10.10;;;;;;4981280;28;20260;-69
2023/06/29 00:26:21;;;;;;;3.00;2.70;;;15.50;10.10;;;;;;4976086;28;20567;-69
2023/06/29 00:28:46;;;;;;;3.77;3.20;;;15.50;10.00;;;;;;4993639;28;20541;-69
2023/06/29 00:31:12;;;;;;;3.20;2.70;;;15.50;10.00;;;;;;4993947;28;20633;-68
2023/06/29 00:33:37;;;;;;;3.43;2.53;;;15.40;9.90;;;;;;4995106;28;20665;-68
2023/06/29 00:36:03;;;;;;;4.70;2.77;;;15.40;9.80;;;;;;4995230;28;20270;-68
2023/06/29 00:38:29;;;;;;;5.10;3.37;;;15.30;10.50;;;;;;4994855;28;20205;-69
2023/06/29 00:40:55;;;;;;;3.90;2.90;;;15.20;11.00;;;;;;4974137;28;20190;-69
2023/06/29 00:43:20;;;;;;;5.57;3.30;;;15.20;10.90;;;;;;4975106;28;20424;-68
2023/06/29 00:45:46;;;;;;;3.47;3.17;;;15.30;10.70;;;;;;4975269;28;20551;-69
2023/06/29 00:48:12;;;;;;;4.20;3.27;;;15.30;11.20;;;;;;4975365;28;20281;-69
2023/06/29 00:50:40;;;;;;;3.43;3.13;;;15.30;11.20;;;;;;4974895;28;20229;-68
2023/06/29 00:53:06;;;;;;;7.57;3.30;;;15.30;11.30;;;;;;4993623;28;20438;-68
2023/06/29 00:55:32;;;;;;;5.00;3.27;;;15.20;11.50;;;;;;4994526;28;20418;-69
2023/06/29 00:57:58;;;;;;;4.07;3.67;;;15.20;11.50;;;;;;4994492;28;20418;-69
2023/06/29 01:00:23;;;;;;;4.50;3.97;;;15.20;11.70;;;;;;4994212;28;21004;-68
2023/06/29 01:02:49;;;;;;;4.43;3.10;;;15.10;11.90;;;;;;4994604;28;20274;-69
2023/06/29 01:05:16;;;;;;;6.00;3.30;;;15.10;11.90;;;;;;4994753;28;20559;-68
2023/06/29 01:07:46;;;;;;;5.10;3.67;;;15.10;12.10;;;;;;4994505;28;20422;-68
2023/06/29 01:10:14;;;;;;;3.57;3.27;;;15.10;12.60;;;;;;4994578;28;20837;-68
2023/06/29 01:12:40;;;;;;;6.80;3.77;;;15.00;13.10;;;;;;4994022;28;20563;-69
2023/06/29 01:15:06;;;;;;;4.97;3.50;;;15.00;13.10;;;;;;4994487;28;20463;-69
2023/06/29 01:17:35;;;;;;;4.47;3.40;;;14.90;13.00;;;;;;4994100;28;20601;-69
2023/06/29 01:20:01;;;;;;;4.10;3.30;;;15.00;13.10;;;;;;4994124;28;20844;-70
2023/06/29 01:22:36;;;;;;;3.80;3.33;;;14.90;13.10;;;;;;4993875;28;20442;-69
2023/06/29 01:25:02;;;;;;;3.20;2.60;;;14.80;13.40;;;;;;4995113;28;20746;-69
2023/06/29 01:27:28;;;;;;;4.43;4.03;;;14.70;14.00;;;;;;4995043;28;20451;-69
2023/06/29 01:29:55;;;;;;;12.33;4.37;;;14.70;14.10;;;;;;4995381;28;20507;-69
2023/06/29 01:32:33;;;;;;;5.00;4.50;;;14.70;14.10;;;;;;4995350;28;20480;-69
2023/06/29 01:35:03;;;;;;;5.20;4.70;;;14.60;14.00;;;;;;4993715;28;20436;-70
2023/06/29 01:37:54;;;;;;;7.27;4.13;;;14.60;14.10;;;;;;4995125;28;20409;-70
2023/06/29 01:40:26;;;;;;;7.03;4.53;;;14.60;14.30;;;;;;4994811;28;20453;-70
2023/06/29 01:42:54;;;;;;;3.63;3.33;;;14.60;14.50;;;;;;4993533;28;20445;-70
2023/06/29 01:45:21;;;;;;;4.10;3.70;;;14.50;14.80;;;;;;4993849;28;20523;-70
2023/06/29 01:47:47;;;;;;;4.60;3.73;;;14.50;14.80;;;;;;4994292;28;20419;-70
2023/06/29 01:50:13;;;;;;;4.37;3.93;;;14.40;14.90;;;;;;4992914;28;20530;-70
2023/06/29 01:52:38;;;;;;;4.03;3.40;;;14.40;14.90;;;;;;4995232;28;20181;-71
2023/06/29 01:55:04;;;;;;;3.80;3.47;;;14.40;14.70;;;;;;4994711;28;20420;-69
2023/06/29 01:57:30;;;;;;;3.70;3.40;;;14.40;14.70;;;;;;4993911;28;20179;-70
2023/06/29 01:59:56;;;;;;;5.77;3.80;;;14.40;14.90;;;;;;4994414;28;20517;-70
2023/06/29 02:02:21;;;;;;;5.63;3.90;;;14.40;15.00;;;;;;4993567;28;20186;-68
2023/06/29 02:04:47;;;;;;;4.23;3.47;;;14.40;15.40;;;;;;4993674;28;20735;-68
2023/06/29 02:07:12;;;;;;;6.10;4.30;;;14.30;15.60;;;;;;4993670;28;20219;-70
2023/06/29 02:09:38;;;;;;;4.27;3.13;;;14.30;15.40;;;;;;4993334;28;20683;-70
2023/06/29 02:12:04;;;;;;;4.40;3.10;;;14.30;15.40;;;;;;4993146;28;20265;-69
2023/06/29 02:14:30;;;;;;;6.63;3.10;;;14.30;15.60;;;;;;4993370;28;20566;-69
2023/06/29 02:16:55;;;;;;;4.67;3.40;;;14.30;15.60;;;;;;4993306;28;20829;-69
2023/06/29 02:19:21;;;;;;;5.00;3.20;;;14.30;15.70;;;;;;4993108;28;20201;-69
2023/06/29 02:21:46;;;;;;;3.10;2.80;;;14.30;16.20;;;;;;4992940;28;20228;-69
2023/06/29 02:24:12;;;;;;;8.50;3.97;;;14.30;16.20;;;;;;4993333;28;20242;-69
2023/06/29 02:26:37;;;;;;;3.30;3.00;;;14.20;16.30;;;;;;4993227;28;20410;-69
2023/06/29 02:29:03;;;;;;;6.33;3.87;;;14.20;17.00;;;;;;4993162;28;20214;-69
2023/06/29 02:31:29;;;;;;;5.90;3.80;;;14.20;16.20;;;;;;4992546;28;20196;-69
2023/06/29 02:33:55;;;;;;;5.80;2.93;;;14.20;17.00;;;;;;4992024;28;20443;-71
2023/06/29 02:36:21;;;;;;;5.53;3.60;;;14.10;16.70;;;;;;4991786;28;20454;-70
2023/06/29 02:38:48;;;;;;;3.63;3.20;;;14.10;16.80;;;;;;4993091;28;20611;-69
2023/06/29 02:41:13;;;;;;;4.93;4.37;;;14.10;16.90;;;;;;4993117;28;20768;-69
2023/06/29 02:43:39;;;;;;;4.50;3.27;;;14.10;16.90;;;;;;4992406;28;20425;-70
2023/06/29 02:46:04;;;;;;;7.60;3.77;;;14.00;17.60;;;;;;4992700;28;20185;-70
2023/06/29 02:48:30;;;;;;;4.70;3.53;;;14.00;17.30;;;;;;4992804;28;20213;-69
2023/06/29 02:50:57;;;;;;;6.07;3.20;;;14.00;17.40;;;;;;4991310;28;20585;-69
2023/06/29 02:53:22;;;;;;;5.00;3.47;;;14.00;16.80;;;;;;4990704;28;20507;-70
2023/06/29 02:55:48;;;;;;;3.97;3.57;;;13.90;17.20;;;;;;4992510;28;20902;-69
2023/06/29 02:58:13;;;;;;;4.10;3.10;;;13.90;17.00;;;;;;4991630;28;20183;-69
2023/06/29 03:00:39;;;;;;;5.17;3.90;;;13.90;16.70;;;;;;4991445;28;20220;-70
2023/06/29 03:03:05;;;;;;;4.83;3.43;;;13.90;17.00;;;;;;4992450;28;20184;-69
2023/06/29 03:05:33;;;;;;;5.60;4.17;;;13.80;17.30;;;;;;4992386;28;20189;-68
2023/06/29 03:07:59;;;;;;;4.07;3.67;;;13.80;17.30;;;;;;4991242;28;20188;-68
2023/06/29 03:10:24;;;;;;;9.23;4.30;;;13.80;17.40;;;;;;4992332;28;20476;-68
2023/06/29 03:12:50;;;;;;;4.50;3.33;;;13.80;17.20;;;;;;4992474;28;20257;-69
2023/06/29 03:15:16;;;;;;;5.33;4.13;;;13.80;17.50;;;;;;4992186;28;20185;-69
2023/06/29 03:17:41;;;;;;;4.90;4.13;;;13.80;17.40;;;;;;4992547;28;20188;-69
2023/06/29 03:20:07;;;;;;;7.80;4.13;;;13.70;17.50;;;;;;4992257;28;20685;-70
2023/06/29 03:22:33;;;;;;;4.07;3.63;;;13.70;17.40;;;;;;4988969;28;20564;-70
2023/06/29 03:24:59;;;;;;;4.70;4.20;;;13.70;17.70;;;;;;4972886;28;20422;-70
2023/06/29 03:27:24;;;;;;;4.90;4.10;;;13.60;17.90;;;;;;4989698;28;20482;-70
2023/06/29 03:29:53;;;;;;;4.37;3.97;;;13.60;18.10;;;;;;4992088;28;20208;-69
2023/06/29 03:32:18;;;;;;;4.30;3.30;;;13.60;18.20;;;;;;4992015;28;20264;-70
2023/06/29 03:34:44;;;;;;;4.70;3.90;;;13.60;17.70;;;;;;4992693;28;20543;-69
2023/06/29 03:37:10;;;;;;;7.90;3.80;;;13.60;17.50;;;;;;4991860;28;20189;-70
2023/06/29 03:39:35;;;;;;;3.70;2.97;;;13.70;17.30;;;;;;4992435;28;20606;-70
2023/06/29 03:42:01;;;;;;;4.80;4.03;;;13.70;17.00;;;;;;4992104;28;20510;-70
2023/06/29 03:44:26;;;;;;;4.17;3.67;;;13.70;17.00;;;;;;4992561;28;20312;-70
2023/06/29 03:46:52;;;;;;;4.40;4.00;;;13.80;17.20;;;;;;4992638;28;20192;-69
2023/06/29 03:49:18;;;;;;;5.50;4.20;;;13.80;17.20;;;;;;4992172;28;20306;-70
2023/06/29 03:51:43;;;;;;;5.13;3.83;;;13.90;17.10;;;;;;4991870;28;20195;-70
2023/06/29 03:54:09;;;;;;;6.13;4.10;;;13.90;16.70;;;;;;4992319;28;20169;-70
2023/06/29 03:56:34;;;;;;;4.07;3.27;;;13.90;16.70;;;;;;4992107;28;20177;-69
2023/06/29 03:59:00;;;;;;;4.17;3.77;;;14.00;16.10;;;;;;4991976;28;20224;-70
2023/06/29 04:01:28;;;;;;;5.10;3.43;;;14.00;16.10;;;;;;4993062;28;20181;-70
2023/06/29 04:03:54;;;;;;;4.73;3.80;;;14.10;16.00;;;;;;4992173;28;20175;-70
2023/06/29 04:06:20;;;;;;;5.63;4.40;;;14.10;15.50;;;;;;4995426;28;20434;-70
2023/06/29 04:08:45;;;;;;;7.27;3.50;;;14.20;15.10;;;;;;4996530;28;20594;-68
2023/06/29 04:11:12;;;;;;;5.77;4.07;;;14.30;15.10;;;;;;4996516;28;20173;-69
2023/06/29 04:13:37;;;;;;;4.80;4.23;;;14.30;14.40;;;;;;4995703;28;20209;-70
2023/06/29 04:16:03;;;;;;;5.27;3.43;;;14.40;14.70;;;;;;4997396;28;20524;-70
2023/06/29 04:18:29;;;;;;;4.33;3.50;;;14.40;14.70;;;;;;4994500;28;20196;-69
2023/06/29 04:20:54;;;;;;;4.50;4.03;;;14.50;14.70;;;;;;4995727;28;20900;-70
2023/06/29 04:23:20;;;;;;;3.47;3.17;;;14.50;14.40;;;;;;4985466;28;20685;-70
2023/06/29 04:25:46;;;;;;;4.23;3.67;;;14.60;14.00;;;;;;4982942;28;20787;-70
2023/06/29 04:28:12;;;;;;;3.70;2.70;;;14.60;13.60;;;;;;4995307;28;20281;-70
2023/06/29 04:30:44;;;;;;;3.80;3.10;;;14.60;13.70;;;;;;4995157;28;20565;-70
2023/06/29 04:33:10;;;;;;;6.40;3.63;;;14.70;13.10;;;;;;4995120;28;20417;-70
2023/06/29 04:35:43;;;;;;;4.37;3.97;;;14.80;13.00;;;;;;4995344;28;20417;-69
2023/06/29 04:38:09;;;;;;;4.73;3.37;;;14.80;13.00;;;;;;4995368;28;20518;-70
2023/06/29 04:40:35;;;;;;;5.10;3.70;;;14.80;13.00;;;;;;4994973;28;20438;-69
2023/06/29 04:43:02;;;;;;;5.13;3.97;;;14.90;12.60;;;;;;4994895;28;20418;-69
2023/06/29 04:45:28;;;;;;;5.00;3.97;;;15.00;12.00;;;;;;4993435;28;20421;-69
2023/06/29 04:47:56;;;;;;;5.50;3.60;;;15.10;11.70;;;;;;4995060;28;20425;-70
2023/06/29 04:50:25;;;;;;;2.90;2.60;;;15.20;11.50;;;;;;4994748;28;20838;-69
2023/06/29 04:53:05;;;;;;;4.27;2.90;;;15.30;10.80;;;;;;4994626;28;20458;-70
2023/06/29 04:55:31;;;;;;;3.57;3.23;;;15.30;10.50;;;;;;4994812;28;20473;-70
2023/06/29 04:57:57;;;;;;;4.63;3.23;;;15.40;10.20;;;;;;4993584;28;20810;-69
2023/06/29 05:00:22;;;;;;;7.00;3.70;;;15.60;10.00;;;;;;4994598;28;20293;-70
2023/06/29 05:02:48;;;;;;;4.33;3.90;;;15.70;9.30;;;;;;4994435;28;20234;-70
2023/06/29 05:05:13;;;;;;;4.60;3.10;;;15.80;9.20;;;;;;4994958;28;20194;-69
2023/06/29 05:07:40;;;;;;;8.23;3.17;;;15.90;8.90;;;;;;4994654;28;20223;-70
2023/06/29 05:10:06;;;;;;;4.10;3.70;;;16.00;8.90;;;;;;4994486;28;20208;-70
2023/06/29 05:12:34;;;;;;;4.93;3.57;;;16.10;8.60;;;;;;4994183;28;20488;-70
2023/06/29 05:15:00;;;;;;;3.47;3.13;;;16.20;8.10;;;;;;4993640;28;20542;-70
2023/06/29 05:17:26;;;;;;;7.63;3.33;;;16.30;7.90;;;;;;4992845;28;20875;-70
2023/06/29 05:19:57;;;;;;;4.80;3.73;;;16.60;6.40;;;;;;4996762;28;20283;-70
2023/06/29 05:22:23;;;;;;;3.57;3.10;;;16.80;5.40;;;;;;4995020;28;20268;-70
2023/06/29 05:24:52;;;;;;;3.37;3.07;;;16.90;5.40;;;;;;4995101;28;20447;-71
2023/06/29 05:27:30;;;;;;;5.00;3.63;;;17.10;5.60;;;;;;4994547;28;20188;-70
2023/06/29 05:29:55;;;;;;;7.97;3.83;;;17.20;5.00;;;;;;4994764;28;20474;-73
2023/06/29 05:32:21;;;;;;;4.50;4.13;;;17.40;4.10;;;;;;4992632;28;20970;-72
2023/06/29 05:34:46;;;;;;;3.97;3.57;;;17.60;3.70;;;;;;4994311;28;20531;-72
2023/06/29 05:37:12;;;;;;;6.27;4.23;;;17.90;2.90;;;;;;4994188;28;20523;-72
2023/06/29 05:39:37;;;;;;;4.23;3.83;;;18.20;3.50;;;;;;4994750;28;20291;-70
2023/06/29 05:42:03;;;;;;;5.63;3.67;;;18.30;2.70;;;;;;4992769;28;20660;-71
2023/06/29 05:44:29;;;;;;;5.20;4.53;;;19.40;1.90;;;;;;4994533;28;20181;-71
2023/06/29 05:46:55;;;;;;;5.40;4.97;;;22.10;1.00;;;;;;4994766;28;20952;-72
2023/06/29 05:49:21;;;;;;;5.80;5.40;;;24.50;1.00;;;;;;4995878;28;20612;-72
2023/06/29 05:51:47;;;;;;;5.20;4.80;;;26.50;1.00;;;;;;4982945;28;20424;-70
2023/06/29 05:54:12;;;;;;;5.03;4.67;;;28.00;1.00;;;;;;4995332;28;20416;-72
2023/06/29 05:56:38;;;;;;;5.93;5.50;;;29.60;1.00;;;;;;4994687;28;20183;-71
2023/06/29 05:59:04;;;;;;;6.07;5.47;;;30.90;1.00;;;;;;4997236;28;20193;-71
2023/06/29 06:01:29;;;;;;;7.23;5.70;;;32.10;1.00;;;;;;4993997;28;20188;-71
2023/06/29 06:03:55;;;;;;;6.70;6.10;;;32.80;1.00;;;;;;4993655;28;20718;-71
2023/06/29 06:06:21;;;;;;;6.40;5.90;;;33.70;1.00;;;;;;4993791;28;20771;-71
2023/06/29 06:08:46;;;;;;;6.50;5.90;;;33.90;1.00;;;;;;4993844;28;20201;-72
2023/06/29 06:11:12;;;;;;;5.90;5.33;;;33.60;1.00;;;;;;4994204;28;20606;-70
2023/06/29 06:13:38;;;;;;;7.20;5.30;;;33.10;1.00;;;;;;4993668;28;20184;-71
2023/06/29 06:16:04;;;;;;;6.00;5.50;;;33.60;1.00;;;;;;4992472;28;20238;-71
2023/06/29 06:18:30;;;;;;;6.00;5.50;;;34.80;1.00;;;;;;4993683;28;20666;-72
2023/06/29 06:20:56;;;;;;;6.37;5.77;;;35.80;1.00;;;;;;4993539;28;20419;-71
2023/06/29 06:23:22;;;;;;;6.07;5.60;;;35.50;1.00;;;;;;4993008;28;20280;-72
2023/06/29 06:25:47;;;;;;;6.20;5.70;;;36.20;1.00;;;;;;4993712;28;20540;-71
2023/06/29 06:28:13;;;;;;;6.03;5.50;;;36.50;1.00;;;;;;4993119;28;20185;-71
2023/06/29 06:30:38;;;;;;;6.47;5.97;;;36.60;1.00;;;;;;4992047;28;20208;-71
2023/06/29 06:33:04;;;;;;;5.50;4.97;;;36.70;1.00;;;;;;4993286;28;20177;-72
2023/06/29 06:35:30;;;;;;;7.13;6.40;;;36.70;1.00;;;;;;4994127;28;20632;-71
2023/06/29 06:37:55;;;;;;;6.97;6.27;;;37.10;1.00;;;;;;4993957;28;20542;-71
2023/06/29 06:40:21;;;;;;;6.40;5.50;;;36.20;1.00;;;;;;4993968;28;20566;-71
2023/06/29 06:42:47;;;;;;;5.63;5.27;;;36.50;1.00;;;;;;4993497;28;20682;-71
2023/06/29 06:45:13;;;;;;;5.80;5.33;;;36.10;1.00;;;;;;4993528;28;20188;-71
2023/06/29 06:47:39;;;;;;;6.60;5.70;;;36.80;1.00;;;;;;4993260;28;20169;-72
2023/06/29 06:50:05;;;;;;;5.93;5.53;;;34.80;1.00;;;;;;4993106;28;20543;-76
2023/06/29 06:52:31;;;;;;;5.80;5.30;;;36.10;1.00;;;;;;4992524;28;20177;-72
2023/06/29 06:54:57;;;;;;;6.07;5.47;;;38.10;1.00;;;;;;4992780;28;20956;-72
2023/06/29 06:57:23;;;;;;;6.60;6.10;;;39.20;1.00;;;;;;4993356;28;20173;-71
2023/06/29 06:59:48;;;;;;;9.93;5.03;;;39.40;1.00;;;;;;4993321;28;20220;-71
2023/06/29 07:02:14;;;;;;;6.57;5.73;;;38.90;1.00;;;;;;4992620;28;20447;-71
2023/06/29 07:04:40;;;;;;;4.90;4.60;;;39.20;1.00;;;;;;4993101;28;20227;-71
2023/06/29 07:07:07;;;;;;;7.27;5.00;;;39.70;1.00;;;;;;4992791;28;20195;-71
2023/06/29 07:09:32;;;;;;;5.47;5.07;;;40.40;1.00;;;;;;4992552;28;20286;-70
2023/06/29 07:11:59;;;;;;;6.37;5.97;;;37.70;1.00;;;;;;4990695;28;20431;-71
2023/06/29 07:14:25;;;;;;;10.87;5.90;;;37.90;1.00;;;;;;4989896;28;20643;-71
2023/06/29 07:16:50;;;;;;;5.13;4.70;;;37.50;1.00;;;;;;4992702;28;20419;-70
2023/06/29 07:19:16;;;;;;;6.70;5.40;;;37.70;1.00;;;;;;4992511;28;20996;-71
2023/06/29 07:21:42;;;;;;;12.50;6.17;;;37.90;1.00;;;;;;4992245;28;20263;-71
2023/06/29 07:24:09;;;;;;;5.23;4.93;;;37.90;1.00;;;;;;4976449;28;20193;-71
2023/06/29 07:26:36;;;;;;;5.60;5.20;;;38.60;1.00;;;;;;4973089;28;20511;-70
2023/06/29 07:29:03;;;;;;;5.70;5.30;;;38.70;1.00;;;;;;4991509;28;20448;-71
2023/06/29 07:31:32;;;;;;;5.67;5.27;;;39.90;1.00;;;;;;4992251;28;20412;-71
2023/06/29 07:33:57;;;;;;;5.73;5.27;;;40.40;1.00;;;;;;4971784;28;20447;-71
2023/06/29 07:36:25;;;;;;;5.40;5.10;;;39.50;1.00;;;;;;4972874;28;20421;-70
2023/06/29 07:38:51;;;;;;;5.60;5.10;;;40.00;1.00;;;;;;4975341;28;20212;-71
2023/06/29 07:41:18;;;;;;;5.57;5.17;;;41.40;1.00;;;;;;4993752;28;20470;-71
2023/06/29 07:43:48;;;;;;;5.47;5.17;;;39.70;1.00;;;;;;4996038;28;20462;-71
2023/06/29 07:46:14;;;;;;;6.23;5.73;;;39.00;1.00;;;;;;4996265;28;20507;-71
2023/06/29 07:48:39;;;;;;;6.23;5.67;;;38.50;1.00;;;;;;4995895;28;20523;-71
2023/06/29 07:51:05;;;;;;;6.50;5.90;;;37.80;1.00;;;;;;4988534;28;20216;-70
2023/06/29 07:53:31;;;;;;;6.23;5.70;;;36.00;1.00;;;;;;4995681;28;20185;-70
2023/06/29 07:55:58;;;;;;;6.27;5.13;;;34.10;1.00;;;;;;4996023;28;20543;-70
2023/06/29 07:58:23;;;;;;;6.30;5.70;;;33.00;1.00;;;;;;4995847;28;20418;-70
2023/06/29 08:00:49;;;;;;;6.27;5.67;;;32.20;1.00;;;;;;4996384;28;20443;-72
2023/06/29 08:03:14;;;;;;;5.90;5.40;;;32.30;1.00;;;;;;4995090;28;20188;-70
2023/06/29 08:05:40;;;;;;;6.67;5.37;;;32.40;1.00;;;;;;4995801;28;20522;-70
2023/06/29 08:08:05;;;;;;;14.53;6.10;;;32.30;1.00;;;;;;4995766;28;20210;-71
2023/06/29 08:10:31;;;;;;;8.07;6.07;;;32.40;1.00;;;;;;4995751;28;20213;-71
2023/06/29 08:12:57;;;;;;;7.00;6.23;;;32.60;1.00;;;;;;4995197;28;20517;-71
2023/06/29 08:15:22;;;;;;;7.73;6.53;;;33.00;1.00;;;;;;4995303;28;20185;-71
2023/06/29 08:17:48;;;;;;;5.47;4.97;;;34.50;1.00;;;;;;4993534;28;20181;-71
2023/06/29 08:20:13;;;;;;;6.00;4.77;;;35.40;1.00;;;;;;4976342;28;20248;-71
2023/06/29 08:22:42;;;;;;;6.43;5.37;;;35.60;1.00;;;;;;4994180;28;20192;-71
2023/06/29 08:25:09;;;;;;;7.03;5.80;;;35.70;1.00;;;;;;4995441;28;20451;-71
2023/06/29 08:27:35;;;;;;;5.53;5.03;;;34.30;1.00;;;;;;4986300;28;20906;-71
2023/06/29 08:30:02;;;;;;;7.90;5.90;;;34.90;1.00;;;;;;4976032;28;20561;-71
2023/06/29 08:32:27;;;;;;;6.83;5.70;;;34.60;1.00;;;;;;4990165;28;20798;-71
2023/06/29 08:34:53;;;;;;;6.67;5.90;;;35.40;1.00;;;;;;4995335;28;20511;-71
2023/06/29 08:37:19;;;;;;;5.97;5.40;;;36.90;1.00;;;;;;4995109;28;20643;-71
2023/06/29 08:39:45;;;;;;;7.83;5.70;;;36.00;1.00;;;;;;4995165;28;20287;-72
2023/06/29 08:42:14;;;;;;;6.20;5.70;;;36.50;1.00;;;;;;4995382;28;20851;-71
2023/06/29 08:44:40;;;;;;;6.40;5.90;;;37.20;1.00;;;;;;4994905;28;20192;-70
2023/06/29 08:47:07;;;;;;;6.20;5.47;;;38.20;1.00;;;;;;4994716;28;20447;-70
2023/06/29 08:49:38;;;;;;;8.57;6.23;;;37.20;1.00;;;;;;4994869;28;20522;-71
2023/06/29 08:52:05;;;;;;;6.20;5.60;;;38.10;1.00;;;;;;4993303;28;20448;-71
2023/06/29 08:54:32;;;;;;;6.27;5.70;;;37.70;1.00;;;;;;4994762;28;20470;-71
2023/06/29 08:57:01;;;;;;;5.73;5.33;;;38.00;1.00;;;;;;4995220;28;20499;-71
2023/06/29 08:59:28;;;;;;;4.90;4.60;;;37.50;1.00;;;;;;4996669;28;20471;-71
2023/06/29 09:01:54;;;;;;;5.20;4.90;;;36.80;1.00;;;;;;4995672;28;20409;-71
2023/06/29 09:04:21;;;;;;;6.20;5.70;;;36.80;1.00;;;;;;4995472;28;20526;-71
2023/06/29 09:06:47;;;;;;;6.33;5.93;;;36.00;1.00;;;;;;4995450;28;20979;-71
2023/06/29 09:09:13;;;;;;;5.60;5.20;;;36.40;1.00;;;;;;4994751;28;20444;-71
2023/06/29 09:11:40;;;;;;;6.60;6.00;;;36.20;1.00;;;;;;4993268;28;20666;-71
2023/06/29 09:14:07;;;;;;;7.03;6.33;;;37.00;1.00;;;;;;4992661;28;20681;-69
2023/06/29 09:16:36;;;;;;;5.60;5.20;;;37.40;1.00;;;;;;4994687;28;20431;-70
2023/06/29 09:19:05;;;;;;;5.90;5.40;;;38.30;1.00;;;;;;4994478;28;20459;-71
2023/06/29 09:21:31;;;;;;;5.33;4.83;;;37.60;1.00;;;;;;4994304;28;20415;-72
2023/06/29 09:24:00;;;;;;;6.73;5.27;;;35.60;1.00;;;;;;4994189;28;20415;-70
2023/06/29 09:26:28;;;;;;;4.63;4.33;;;34.20;1.00;;;;;;4994286;28;20765;-70
2023/06/29 09:29:01;;;;;;;6.00;5.50;;;33.40;1.00;;;;;;4974443;28;20447;-70
2023/06/29 09:31:28;;;;;;;6.17;5.67;;;32.10;1.00;;;;;;4974628;28;20474;-71
2023/06/29 09:33:53;;;;;;;5.87;5.37;;;30.90;1.00;;;;;;4974928;28;20429;-70
2023/06/29 09:36:25;;;;;;;6.30;5.70;;;30.90;1.00;;;;;;4974768;28;20435;-70
2023/06/29 09:38:52;;;;;;;6.10;4.93;;;30.70;1.00;;;;;;4980160;28;20557;-71
2023/06/29 09:41:17;;;;;;;5.10;4.80;;;30.50;1.00;;;;;;4993663;28;20427;-70
2023/06/29 09:43:45;;;;;;;5.33;4.83;;;30.30;1.00;;;;;;4992728;28;20424;-70
2023/06/29 09:46:12;;;;;;;5.47;5.00;;;30.00;1.00;;;;;;4994000;28;20227;-70
2023/06/29 09:48:45;;;;;;;5.93;5.43;;;29.90;1.00;;;;;;4992503;28;20493;-70
2023/06/29 09:51:17;;;;;;;5.90;5.40;;;29.90;1.00;;;;;;4993684;28;20794;-70
2023/06/29 09:53:45;;;;;;;6.53;5.40;;;30.00;1.00;;;;;;4993749;28;20837;-71
2023/06/29 09:56:10;;;;;;;6.90;6.30;;;29.90;1.00;;;;;;4992432;28;20511;-70
2023/06/29 09:58:36;;;;;;;6.00;5.60;;;30.00;1.00;;;;;;4993583;28;20863;-70
2023/06/29 10:01:03;;;;;;;6.07;5.60;;;29.80;1.00;;;;;;4993651;28;20188;-72
2023/06/29 10:03:31;;;;;;;5.20;4.87;;;30.00;1.00;;;;;;4992840;28;20458;-70
2023/06/29 10:06:06;;;;;;;4.90;4.50;;;30.00;1.00;;;;;;4993852;28;20415;-70
2023/06/29 10:08:35;;;;;;;5.10;4.67;;;30.00;1.00;;;;;;4993126;28;20419;-70
2023/06/29 10:11:03;;;;;;;4.83;4.37;;;29.90;1.00;;;;;;4991566;28;20467;-74
2023/06/29 10:13:30;;;;;;;5.87;4.93;;;29.90;1.00;;;;;;4991828;28;20805;-72
2023/06/29 10:15:57;;;;;;;5.43;4.50;;;29.80;1.00;;;;;;4993184;28;20517;-71
2023/06/29 10:18:29;;;;;;;4.80;4.43;;;29.90;1.00;;;;;;4992551;28;20420;-71
2023/06/29 10:20:55;;;;;;;5.73;5.30;;;30.30;1.00;;;;;;4993106;28;20420;-72
2023/06/29 10:23:22;;;;;;;4.93;4.53;;;30.60;1.00;;;;;;4992636;28;20423;-71
2023/06/29 10:25:49;;;;;;;5.17;4.87;;;30.90;1.00;;;;;;4993019;28;20470;-71
2023/06/29 10:28:16;;;;;;;5.90;5.03;;;31.10;1.00;;;;;;4992676;28;20470;-72
2023/06/29 10:30:44;;;;;;;5.90;5.27;;;30.90;1.00;;;;;;4992748;28;20463;-72
2023/06/29 10:33:10;;;;;;;5.67;4.87;;;31.10;1.00;;;;;;4992637;28;20443;-72
2023/06/29 10:35:36;;;;;;;8.97;5.00;;;30.90;1.00;;;;;;4991100;28;20423;-73
2023/06/29 10:38:10;;;;;;;6.50;5.50;;;31.00;1.00;;;;;;4992997;28;20420;-72
2023/06/29 10:40:46;;;;;;;7.80;5.23;;;31.00;1.00;;;;;;4992852;28;20441;-69
2023/06/29 10:43:12;;;;;;;5.40;5.00;;;31.00;1.00;;;;;;4992603;28;20498;-70
2023/06/29 10:45:38;;;;;;;5.00;4.50;;;30.80;1.00;;;;;;4992488;28;20507;-70
2023/06/29 10:48:06;;;;;;;5.57;5.00;;;30.60;1.00;;;;;;4992450;28;20605;-70
2023/06/29 10:50:44;;;;;;;5.20;4.77;;;30.60;1.00;;;;;;4992288;28;20474;-69
2023/06/29 10:53:15;;;;;;;5.33;4.90;;;30.40;1.00;;;;;;4992269;28;20438;-69
2023/06/29 10:55:59;;;;;;;5.77;5.20;;;30.00;1.00;;;;;;4992457;28;20741;-71
2023/06/29 10:58:36;;;;;;;5.80;5.17;;;29.60;1.00;;;;;;4992429;28;20449;-70
2023/06/29 11:01:02;;;;;;;5.77;5.10;;;30.00;1.00;;;;;;4992172;28;20475;-69
2023/06/29 11:03:28;;;;;;;4.83;4.47;;;30.00;1.00;;;;;;4992175;28;20811;-71
2023/06/29 11:05:54;;;;;;;5.87;5.37;;;30.40;1.00;;;;;;4992578;28;20180;-71
2023/06/29 11:08:24;;;;;;;6.10;4.87;;;30.60;1.00;;;;;;4991755;28;20420;-70
2023/06/29 11:10:51;;;;;;;6.20;5.57;;;30.70;1.00;;;;;;4992117;28;20521;-71
2023/06/29 11:13:21;;;;;;;5.77;5.33;;;30.60;1.00;;;;;;4992038;28;20507;-70
2023/06/29 11:15:55;;;;;;;5.67;5.17;;;30.30;1.00;;;;;;4988667;28;21213;-70
2023/06/29 11:18:21;;;;;;;5.93;5.20;;;30.30;1.00;;;;;;4974769;28;20419;-70
2023/06/29 11:20:46;;;;;;;5.67;5.17;;;30.40;1.00;;;;;;4974645;28;20424;-70
2023/06/29 11:23:12;;;;;;;5.33;4.97;;;30.50;1.00;;;;;;4991987;28;20192;-71
2023/06/29 11:25:38;;;;;;;5.47;5.07;;;30.60;1.00;;;;;;4992346;28;20184;-72
2023/06/29 11:28:03;;;;;;;6.03;5.53;;;30.40;1.00;;;;;;4991175;28;20207;-71
2023/06/29 11:30:29;;;;;;;5.20;4.80;;;30.50;1.00;;;;;;4992197;28;20686;-71
2023/06/29 11:32:55;;;;;;;5.67;5.17;;;30.70;1.00;;;;;;4992192;28;20184;-71
2023/06/29 11:35:22;;;;;;;7.50;5.97;;;30.90;1.00;;;;;;4992091;28;20693;-71
2023/06/29 11:38:02;;;;;;;7.00;6.27;;;31.30;1.00;;;;;;4992486;28;20199;-71
2023/06/29 11:40:28;;;;;;;5.33;5.00;;;31.80;1.00;;;;;;4991045;28;20448;-72
2023/06/29 11:42:54;;;;;;;6.23;5.60;;;31.90;1.00;;;;;;4992211;28;20446;-71
2023/06/29 11:45:21;;;;;;;5.87;5.37;;;32.70;1.00;;;;;;4992073;28;20884;-71
2023/06/29 11:47:53;;;;;;;5.83;5.37;;;32.60;1.00;;;;;;4992308;28;20183;-72
2023/06/29 11:50:18;;;;;;;5.73;5.33;;;32.70;1.00;;;;;;4992148;28;21027;-71
2023/06/29 11:52:44;;;;;;;5.00;4.60;;;32.90;1.00;;;;;;4991992;28;20455;-71
2023/06/29 11:55:15;;;;;;;5.27;4.97;;;33.10;1.00;;;;;;4991990;28;20352;-71
2023/06/29 11:57:43;;;;;;;5.50;5.10;;;32.90;1.00;;;;;;4992282;28;20431;-71
2023/06/29 12:00:12;;;;;;;5.90;5.30;;;32.90;1.00;;;;;;4991796;28;20530;-71
2023/06/29 12:02:39;;;;;;;7.03;6.30;;;32.40;1.00;;;;;;4990534;28;20428;-71
2023/06/29 12:05:05;;;;;;;5.90;5.50;;;31.90;1.00;;;;;;4992253;28;20493;-70
2023/06/29 12:07:37;;;;;;;7.13;5.90;;;31.90;1.00;;;;;;4992108;28;20551;-71
2023/06/29 12:10:08;;;;;;;9.00;5.23;;;31.60;1.00;;;;;;4991695;28;20502;-69
2023/06/29 12:12:39;;;;;;;6.67;6.00;;;31.60;1.00;;;;;;4991913;28;20431;-68
2023/06/29 12:15:19;;;;;;;6.43;5.83;;;31.40;1.00;;;;;;4991819;28;20471;-70
2023/06/29 12:17:46;;;;;;;6.93;6.33;;;31.10;1.00;;;;;;4991694;28;20897;-70
2023/06/29 12:20:13;;;;;;;5.83;5.43;;;30.90;1.00;;;;;;4990458;28;20448;-70
2023/06/29 12:22:39;;;;;;;5.47;4.97;;;30.80;1.00;;;;;;4991373;28;20426;-70
2023/06/29 12:25:05;;;;;;;5.97;5.57;;;30.80;1.00;;;;;;4991979;28;20490;-70
2023/06/29 12:27:31;;;;;;;6.40;5.60;;;30.50;1.00;;;;;;4995053;28;20664;-71
2023/06/29 12:29:56;;;;;;;5.80;5.40;;;30.50;1.00;;;;;;4995376;28;20542;-69
2023/06/29 12:32:22;;;;;;;5.73;5.20;;;30.40;1.00;;;;;;4995009;28;20323;-70
2023/06/29 12:34:47;;;;;;;8.37;5.07;;;30.80;1.00;;;;;;4993960;28;20216;-69
2023/06/29 12:37:13;;;;;;;6.07;5.57;;;31.10;1.00;;;;;;4995311;28;20181;-70
2023/06/29 12:39:38;;;;;;;7.30;5.43;;;31.40;1.00;;;;;;4994029;28;20205;-69
2023/06/29 12:42:06;;;;;;;6.57;5.97;;;31.80;1.00;;;;;;4994882;28;20185;-69
2023/06/29 12:44:32;;;;;;;5.90;5.40;;;32.00;1.00;;;;;;4995129;28;20173;-70
2023/06/29 12:46:58;;;;;;;6.37;5.87;;;31.80;1.00;;;;;;4994836;28;20803;-69
2023/06/29 12:49:23;;;;;;;5.60;5.00;;;31.50;1.00;;;;;;4994594;28;20456;-70
2023/06/29 12:51:49;;;;;;;5.77;5.20;;;31.60;1.00;;;;;;4994630;28;20203;-69